createdAt,value
2018-11-02T00:00:16.281Z,11.59
2018-11-02T00:02:47.939Z,11.63
2018-11-02T00:05:19.048Z,11.62
2018-11-02T00:07:50.107Z,11.65
2018-11-02T00:10:21.143Z,11.70
2018-11-02T00:12:52.186Z,11.71
2018-11-02T00:15:23.258Z,11.74
2018-11-02T00:18:00.231Z,11.73
2018-11-02T00:20:31.434Z,11.72
2018-11-02T00:23:02.782Z,11.65
2018-11-02T00:25:34.274Z,11.66
2018-11-02T00:28:05.374Z,11.69
2018-11-02T00:30:36.552Z,11.71
2018-11-02T00:33:07.976Z,11.72
2018-11-02T00:35:39.199Z,11.74
2018-11-02T00:38:12.848Z,11.68
2018-11-02T00:40:43.928Z,11.74
2018-11-02T00:43:15.008Z,11.76
2018-11-02T00:45:46.417Z,11.77
2018-11-02T00:48:17.476Z,11.80
2018-11-02T00:50:48.611Z,11.69
2018-11-02T00:53:20.067Z,11.73
2018-11-02T00:55:51.316Z,11.76
2018-11-02T00:58:22.500Z,11.82
2018-11-02T01:00:53.752Z,11.75
2018-11-02T01:03:24.891Z,11.78
2018-11-02T01:05:56.238Z,11.81
2018-11-02T01:08:27.701Z,11.80
2018-11-02T01:10:58.827Z,11.76
2018-11-02T01:13:29.849Z,11.71
2018-11-02T01:16:00.896Z,11.74
2018-11-02T01:18:33.424Z,11.73
2018-11-02T01:21:04.914Z,11.69
2018-11-02T01:23:36.457Z,11.69
2018-11-02T01:26:12.149Z,11.63
2018-11-02T01:28:46.072Z,11.59
2018-11-02T01:31:17.156Z,11.60
2018-11-02T01:33:51.135Z,11.57
2018-11-02T01:36:23.064Z,11.54
2018-11-02T01:38:54.528Z,11.57
2018-11-02T01:41:27.976Z,11.48
2018-11-02T01:43:59.018Z,11.43
2018-11-02T01:46:32.740Z,11.37
2018-11-02T01:49:03.714Z,11.38
2018-11-02T01:51:35.121Z,11.38
2018-11-02T01:54:06.379Z,11.36
2018-11-02T01:56:37.466Z,11.33
2018-11-02T01:59:08.865Z,11.29
2018-11-02T02:01:44.693Z,11.34
2018-11-02T02:04:16.218Z,11.33
2018-11-02T02:06:47.601Z,11.36
2018-11-02T02:09:18.685Z,11.28
2018-11-02T02:11:49.802Z,11.28
2018-11-02T02:14:20.840Z,11.25
2018-11-02T02:16:52.169Z,11.24
2018-11-02T02:19:23.425Z,11.23
2018-11-02T02:21:54.449Z,11.21
2018-11-02T02:24:25.848Z,11.19
2018-11-02T02:27:13.531Z,11.24
2018-11-02T02:29:44.665Z,11.16
2018-11-02T02:32:15.973Z,11.21
2018-11-02T02:34:47.204Z,11.21
2018-11-02T02:37:18.328Z,11.18
2018-11-02T02:39:52.764Z,11.18
2018-11-02T02:42:24.878Z,11.22
2018-11-02T02:44:55.892Z,11.19
2018-11-02T02:47:26.988Z,11.17
2018-11-02T02:50:01.160Z,11.23
2018-11-02T02:52:32.208Z,11.20
2018-11-02T02:55:05.521Z,11.20
2018-11-02T02:57:40.140Z,11.14
2018-11-02T03:00:15.463Z,11.18
2018-11-02T03:02:47.129Z,11.18
2018-11-02T03:05:18.253Z,11.23
2018-11-02T03:07:52.443Z,11.28
2018-11-02T03:10:24.071Z,11.20
2018-11-02T03:12:55.532Z,11.24
2018-11-02T03:15:27.670Z,11.24
2018-11-02T03:18:06.441Z,11.26
2018-11-02T03:20:37.655Z,11.33
2018-11-02T03:23:08.845Z,11.35
2018-11-02T03:25:40.103Z,11.37
2018-11-02T03:28:11.173Z,11.35
2018-11-02T03:30:44.191Z,11.37
2018-11-02T03:33:15.249Z,11.30
2018-11-02T03:35:46.574Z,11.35
2018-11-02T03:38:18.022Z,11.35
2018-11-02T03:40:49.198Z,11.32
2018-11-02T03:43:20.199Z,11.35
2018-11-02T03:45:54.955Z,11.33
2018-11-02T03:48:26.340Z,11.36
2018-11-02T03:50:59.971Z,11.26
2018-11-02T03:53:30.978Z,11.27
2018-11-02T03:56:02.497Z,11.28
2018-11-02T03:58:33.672Z,11.29
2018-11-02T04:01:04.794Z,11.36
2018-11-02T04:03:35.847Z,11.39
2018-11-02T04:06:08.180Z,11.30
2018-11-02T04:08:39.211Z,11.28
2018-11-02T04:11:15.294Z,11.20
2018-11-02T04:13:52.275Z,11.21
2018-11-02T04:16:25.672Z,11.17
2018-11-02T04:18:56.748Z,11.19
2018-11-02T04:21:36.946Z,11.20
2018-11-02T04:24:08.557Z,11.17
2018-11-02T04:26:40.039Z,11.16
2018-11-02T04:29:15.229Z,11.18
2018-11-02T04:31:46.292Z,11.16
2018-11-02T04:34:17.733Z,11.14
2018-11-02T04:36:48.780Z,11.07
2018-11-02T04:39:26.359Z,11.14
2018-11-02T04:41:59.467Z,11.05
2018-11-02T04:44:30.528Z,10.99
2018-11-02T04:47:07.352Z,11.03
2018-11-02T04:49:38.615Z,10.92
2018-11-02T04:52:09.625Z,11.03
2018-11-02T04:54:43.888Z,11.04
2018-11-02T04:57:17.595Z,10.94
2018-11-02T04:59:50.620Z,11.02
2018-11-02T05:02:22.376Z,11.03
2018-11-02T05:04:53.460Z,10.99
2018-11-02T05:07:24.912Z,11.04
2018-11-02T05:09:57.235Z,11.01
2018-11-02T05:12:28.326Z,11.04
2018-11-02T05:14:59.838Z,11.03
2018-11-02T05:17:31.872Z,11.04
2018-11-02T05:20:02.991Z,11.04
2018-11-02T05:22:34.399Z,10.98
2018-11-02T05:25:05.891Z,10.94
2018-11-02T05:27:39.873Z,10.89
2018-11-02T05:30:11.890Z,10.96
2018-11-02T05:32:42.956Z,10.95
2018-11-02T05:35:17.498Z,10.98
2018-11-02T05:37:48.573Z,10.90
2018-11-02T05:40:19.648Z,10.91
2018-11-02T05:42:51.858Z,10.95
2018-11-02T05:45:25.284Z,10.93
2018-11-02T05:47:56.530Z,10.87
2018-11-02T05:50:27.797Z,10.84
2018-11-02T05:52:59.002Z,10.82
2018-11-02T05:55:30.072Z,10.82
2018-11-02T05:58:01.182Z,10.73
2018-11-02T06:00:32.253Z,10.75
2018-11-02T06:03:03.379Z,10.76
2018-11-02T06:05:36.199Z,10.71
2018-11-02T06:08:07.612Z,10.58
2018-11-02T06:10:43.113Z,10.52
2018-11-02T06:13:14.719Z,10.45
2018-11-02T06:15:46.093Z,10.49
2018-11-02T06:18:17.196Z,10.51
2018-11-02T06:20:48.814Z,10.41
2018-11-02T06:23:19.885Z,10.41
2018-11-02T06:25:50.977Z,10.42
2018-11-02T06:28:22.070Z,10.30
2018-11-02T06:30:54.076Z,10.32
2018-11-02T06:33:26.977Z,10.33
2018-11-02T06:35:58.099Z,10.38
2018-11-02T06:38:29.637Z,10.29
2018-11-02T06:41:00.865Z,10.31
2018-11-02T06:43:32.844Z,10.26
2018-11-02T06:46:06.613Z,10.19
2018-11-02T06:48:37.974Z,10.21
2018-11-02T06:51:09.765Z,10.27
2018-11-02T06:53:55.073Z,10.28
2018-11-02T06:56:26.133Z,10.25
2018-11-02T06:59:00.358Z,10.24
2018-11-02T07:01:35.887Z,10.23
2018-11-02T07:04:07.049Z,10.17
2018-11-02T07:06:38.153Z,10.23
2018-11-02T07:10:08.886Z,10.25
2018-11-02T07:12:46.634Z,10.21
2018-11-02T07:15:18.969Z,10.26
2018-11-02T07:17:51.716Z,10.22
2018-11-02T07:20:26.010Z,10.24
2018-11-02T07:23:07.620Z,10.25
2018-11-02T07:25:38.534Z,10.32
2018-11-02T07:28:11.293Z,10.27
2018-11-02T07:30:43.127Z,10.26
2018-11-02T07:33:19.126Z,10.29
2018-11-02T07:35:50.237Z,10.26
2018-11-02T07:38:21.915Z,10.26
2018-11-02T07:40:53.666Z,10.23
2018-11-02T07:43:25.153Z,10.19
2018-11-02T07:46:01.320Z,10.19
2018-11-02T07:48:32.958Z,10.19
2018-11-02T07:51:07.874Z,10.20
2018-11-02T07:53:43.721Z,10.21
2018-11-02T07:56:14.760Z,10.23
2018-11-02T07:58:45.807Z,10.20
2018-11-02T08:01:17.818Z,10.28
2018-11-02T08:03:53.137Z,10.25
2018-11-02T08:06:25.822Z,10.23
2018-11-02T08:08:58.254Z,10.16
2018-11-02T08:11:29.356Z,10.13
2018-11-02T08:14:01.257Z,10.26
2018-11-02T08:16:32.809Z,10.22
2018-11-02T08:19:03.914Z,10.23
2018-11-02T08:21:35.325Z,10.23
2018-11-02T08:24:06.514Z,10.31
2018-11-02T08:26:37.910Z,10.38
2018-11-02T08:29:08.995Z,10.31
2018-11-02T08:31:40.327Z,10.35
2018-11-02T08:34:11.391Z,10.41
2018-11-02T08:36:42.788Z,10.47
2018-11-02T08:39:14.219Z,10.50
2018-11-02T08:41:45.709Z,10.48
2018-11-02T08:44:16.734Z,10.49
2018-11-02T08:49:21.975Z,10.48
2018-11-02T08:51:53.024Z,10.54
2018-11-02T08:54:24.150Z,10.59
2018-11-02T08:56:55.212Z,10.65
2018-11-02T08:59:26.431Z,10.70
2018-11-02T09:01:57.341Z,10.81
2018-11-02T09:04:28.629Z,10.85
2018-11-02T09:07:03.201Z,10.87
2018-11-02T09:09:34.149Z,10.82
2018-11-02T09:12:05.236Z,10.73
2018-11-02T09:14:36.446Z,10.76
2018-11-02T09:17:08.608Z,10.71
2018-11-02T09:19:39.679Z,10.63
2018-11-02T09:22:10.842Z,10.78
2018-11-02T09:24:41.892Z,10.69
2018-11-02T09:27:13.227Z,10.73
2018-11-02T09:29:45.317Z,10.77
2018-11-02T09:32:16.772Z,10.83
2018-11-02T09:34:47.824Z,10.94
2018-11-02T09:37:20.175Z,10.92
2018-11-02T09:39:51.221Z,10.97
2018-11-02T09:44:52.511Z,10.90
2018-11-02T09:47:23.558Z,10.96
2018-11-02T09:49:54.687Z,10.99
2018-11-02T09:52:26.165Z,11.05
2018-11-02T09:55:01.291Z,11.04
2018-11-02T09:57:32.773Z,10.93
2018-11-02T10:00:03.758Z,11.07
2018-11-02T10:02:34.835Z,11.17
2018-11-02T10:05:06.918Z,11.25
2018-11-02T10:07:39.139Z,11.26
2018-11-02T10:10:11.676Z,11.24
2018-11-02T10:12:44.580Z,11.25
2018-11-02T10:15:16.522Z,11.27
2018-11-02T10:17:47.868Z,11.33
2018-11-02T10:20:19.096Z,11.37
2018-11-02T10:22:50.607Z,11.22
2018-11-02T10:25:21.683Z,11.18
2018-11-02T10:27:53.348Z,11.30
2018-11-02T10:30:24.429Z,11.26
2018-11-02T10:32:57.750Z,11.27
2018-11-02T10:35:29.345Z,11.33
2018-11-02T10:38:01.821Z,11.26
2018-11-02T10:40:35.156Z,11.19
2018-11-02T10:43:09.961Z,11.13
2018-11-02T10:45:46.869Z,11.09
2018-11-02T10:48:17.926Z,11.08
2018-11-02T10:50:54.586Z,11.15
2018-11-02T10:53:26.084Z,11.19
2018-11-02T10:55:57.687Z,11.00
2018-11-02T10:58:28.759Z,11.08
2018-11-02T11:01:17.476Z,11.06
2018-11-02T11:03:48.525Z,11.15
2018-11-02T11:06:19.637Z,11.08
2018-11-02T11:08:51.050Z,11.08
2018-11-02T11:11:22.618Z,11.09
2018-11-02T11:13:53.718Z,11.16
2018-11-02T11:16:25.081Z,11.19
2018-11-02T11:18:56.198Z,11.24
2018-11-02T11:21:30.954Z,11.25
2018-11-02T11:24:01.867Z,11.30
2018-11-02T11:26:32.927Z,11.37
2018-11-02T11:29:03.983Z,11.39
2018-11-02T11:31:35.407Z,11.44
2018-11-02T11:34:07.842Z,11.44
2018-11-02T11:36:39.200Z,11.49
2018-11-02T11:39:16.553Z,11.55
2018-11-02T11:41:47.622Z,11.54
2018-11-02T11:44:19.150Z,11.58
2018-11-02T11:46:50.255Z,11.64
2018-11-02T11:49:22.248Z,11.55
2018-11-02T11:51:53.326Z,11.66
2018-11-02T11:54:26.806Z,11.61
2018-11-02T11:56:59.619Z,11.62
2018-11-02T11:59:43.427Z,11.71
2018-11-02T12:02:15.646Z,11.66
2018-11-02T12:04:48.568Z,11.72
2018-11-02T12:07:21.632Z,11.73
2018-11-02T12:09:52.712Z,11.66
2018-11-02T12:12:23.840Z,11.68
2018-11-02T12:14:55.963Z,11.66
2018-11-02T12:17:27.473Z,11.65
2018-11-02T12:19:59.143Z,11.64
2018-11-02T12:22:30.229Z,11.60
2018-11-02T12:25:01.405Z,11.55
2018-11-02T12:27:32.808Z,11.63
2018-11-02T12:30:05.222Z,11.58
2018-11-02T12:32:37.922Z,11.61
2018-11-02T12:35:10.891Z,11.69
2018-11-02T12:37:42.341Z,11.71
2018-11-02T12:40:15.146Z,11.64
2018-11-02T12:42:47.092Z,11.68
2018-11-02T12:45:20.283Z,11.78
2018-11-02T12:47:54.578Z,11.79
2018-11-02T12:50:27.899Z,11.82
2018-11-02T12:53:00.049Z,11.73
2018-11-02T12:55:31.825Z,11.68
2018-11-02T12:58:07.603Z,11.75
2018-11-02T13:00:39.883Z,11.78
2018-11-02T13:03:12.963Z,11.76
2018-11-02T13:05:45.029Z,11.75
2018-11-02T13:08:17.207Z,11.73
2018-11-02T13:10:48.153Z,11.63
2018-11-02T13:13:19.287Z,11.68
2018-11-02T13:15:51.250Z,11.61
2018-11-02T13:18:22.655Z,11.62
2018-11-02T13:20:57.285Z,11.63
2018-11-02T13:23:28.372Z,11.67
2018-11-02T13:26:00.163Z,11.56
2018-11-02T13:28:31.119Z,11.53
2018-11-02T13:31:05.506Z,11.53
2018-11-02T13:33:40.948Z,11.47
2018-11-02T13:36:12.197Z,11.51
2018-11-02T13:38:43.588Z,11.54
2018-11-02T13:41:15.076Z,11.55
2018-11-02T13:43:46.203Z,11.55
2018-11-02T13:46:21.585Z,11.53
2018-11-02T13:48:54.237Z,11.49
2018-11-02T13:51:26.690Z,11.52
2018-11-02T13:53:59.078Z,11.49
2018-11-02T13:56:31.270Z,11.41
2018-11-02T13:59:03.302Z,11.50
2018-11-02T14:01:35.691Z,11.52
2018-11-02T14:04:06.893Z,11.55
2018-11-02T14:06:37.945Z,11.58
2018-11-02T14:09:09.952Z,11.59
2018-11-02T14:11:41.540Z,11.62
2018-11-02T14:14:12.609Z,11.62
2018-11-02T14:16:43.662Z,11.58
2018-11-02T14:19:17.421Z,11.61
2018-11-02T14:21:48.318Z,11.60
2018-11-02T14:24:19.388Z,11.64
2018-11-02T14:26:50.525Z,11.64
2018-11-02T14:29:23.265Z,11.58
2018-11-02T14:32:00.248Z,11.55
2018-11-02T14:34:35.947Z,11.52
2018-11-02T14:37:07.472Z,11.56
2018-11-02T14:39:39.283Z,11.60
2018-11-02T14:42:10.325Z,11.61
2018-11-02T14:44:41.547Z,11.62
2018-11-02T14:47:12.653Z,11.61
2018-11-02T14:49:44.372Z,11.62
2018-11-02T14:52:15.433Z,11.58
2018-11-02T14:54:47.699Z,11.64
2018-11-02T14:57:24.350Z,11.67
2018-11-02T14:59:55.857Z,11.69
2018-11-02T15:02:26.968Z,11.68
2018-11-02T15:05:02.781Z,11.70
2018-11-02T15:07:33.901Z,11.67
2018-11-02T15:10:06.120Z,11.74
2018-11-02T15:12:37.443Z,11.76
2018-11-02T15:15:09.261Z,11.75
2018-11-02T15:17:46.967Z,11.77
2018-11-02T15:20:18.084Z,11.77
2018-11-02T15:22:49.204Z,11.74
2018-11-02T15:25:23.158Z,11.66
2018-11-02T15:27:57.675Z,11.61
2018-11-02T15:30:37.495Z,11.65
2018-11-02T15:33:12.494Z,11.60
2018-11-02T15:35:43.534Z,11.55
2018-11-02T15:38:16.857Z,11.52
2018-11-02T15:40:48.290Z,11.51
2018-11-02T15:43:19.506Z,11.50
2018-11-02T15:45:56.200Z,11.51
2018-11-02T15:48:35.784Z,11.38
2018-11-02T15:51:09.389Z,11.40
2018-11-02T15:53:40.754Z,11.35
2018-11-02T15:56:24.643Z,11.30
2018-11-02T15:58:55.698Z,11.27
2018-11-02T16:01:26.988Z,11.27
2018-11-02T16:04:04.210Z,11.26
2018-11-02T16:06:40.636Z,11.24
2018-11-02T16:09:18.315Z,11.22
2018-11-02T16:11:49.363Z,11.15
2018-11-02T16:14:20.539Z,11.11
2018-11-02T16:16:51.504Z,11.07
2018-11-02T16:19:22.521Z,11.06
2018-11-02T16:21:53.545Z,11.05
2018-11-02T16:24:24.592Z,11.03
2018-11-02T16:26:56.024Z,11.03
2018-11-02T16:29:27.082Z,11.00
2018-11-02T16:32:06.509Z,10.98
2018-11-02T16:34:37.670Z,10.93
2018-11-02T16:37:08.720Z,10.90
2018-11-02T16:39:39.773Z,10.87
2018-11-02T16:42:10.841Z,10.87
2018-11-02T16:44:42.327Z,10.84
2018-11-02T16:47:13.386Z,10.76
2018-11-02T16:49:44.455Z,10.75
2018-11-02T16:52:15.513Z,10.70
2018-11-02T16:54:46.677Z,10.66
2018-11-02T16:57:19.178Z,10.64
2018-11-02T16:59:50.596Z,10.58
2018-11-02T17:02:21.700Z,10.47
2018-11-02T17:04:53.170Z,10.37
2018-11-02T17:07:24.181Z,10.33
2018-11-02T17:09:55.222Z,10.31
2018-11-02T17:12:26.410Z,10.25
2018-11-02T17:14:57.430Z,10.24
2018-11-02T17:17:28.766Z,10.22
2018-11-02T17:19:59.991Z,10.21
2018-11-02T17:22:31.643Z,10.26
2018-11-02T17:25:03.086Z,10.26
2018-11-02T17:27:34.159Z,10.20
2018-11-02T17:30:05.796Z,10.19
2018-11-02T17:32:37.175Z,10.19
2018-11-02T17:35:09.919Z,10.17
2018-11-02T17:37:49.152Z,10.15
2018-11-02T17:40:21.440Z,10.15
2018-11-02T17:42:53.928Z,10.08
2018-11-02T17:45:25.792Z,10.08
2018-11-02T17:47:58.059Z,10.00
2018-11-02T17:50:29.398Z,9.97
2018-11-02T17:53:00.444Z,9.96
2018-11-02T17:55:31.453Z,9.92
2018-11-02T17:58:02.553Z,9.93
2018-11-02T18:00:34.748Z,9.94
2018-11-02T18:03:06.109Z,9.93
2018-11-02T18:05:37.163Z,9.89
2018-11-02T18:08:08.268Z,9.81
2018-11-02T18:10:39.716Z,9.75
2018-11-02T18:13:10.776Z,9.67
2018-11-02T18:15:41.871Z,9.62
2018-11-02T18:18:13.076Z,9.61
2018-11-02T18:20:44.169Z,9.57
2018-11-02T18:23:15.548Z,9.51
2018-11-02T18:25:46.616Z,9.41
2018-11-02T18:28:18.209Z,9.36
2018-11-02T18:30:49.635Z,9.31
2018-11-02T18:33:20.788Z,9.32
2018-11-02T18:35:52.121Z,9.29
2018-11-02T18:38:23.177Z,9.26
2018-11-02T18:40:55.178Z,9.25
2018-11-02T18:43:28.353Z,9.20
2018-11-02T18:46:05.872Z,9.14
2018-11-02T18:48:40.454Z,9.05
2018-11-02T18:51:11.572Z,9.00
2018-11-02T18:53:47.022Z,9.00
2018-11-02T18:56:23.453Z,9.00
2018-11-02T18:58:51.836Z,9.00
2018-11-02T19:01:22.977Z,9.04
2018-11-02T19:03:54.375Z,9.06
2018-11-02T19:06:27.285Z,9.08
2018-11-02T19:09:00.634Z,9.13
2018-11-02T19:11:31.948Z,9.11
2018-11-02T19:14:03.017Z,9.05
2018-11-02T19:16:34.428Z,8.97
2018-11-02T19:19:05.845Z,8.88
2018-11-02T19:21:37.121Z,8.86
2018-11-02T19:24:08.594Z,8.86
2018-11-02T19:26:40.067Z,8.81
2018-11-02T19:29:11.266Z,8.78
2018-11-02T19:31:45.545Z,8.68
2018-11-02T19:34:16.901Z,8.63
2018-11-02T19:36:47.925Z,8.58
2018-11-02T19:39:19.159Z,8.56
2018-11-02T19:41:50.750Z,8.54
2018-11-02T19:44:22.911Z,8.52
2018-11-02T19:46:57.331Z,8.57
2018-11-02T19:49:28.607Z,8.60
2018-11-02T19:51:59.922Z,8.62
2018-11-02T19:54:32.184Z,8.60
2018-11-02T19:57:03.965Z,8.59
2018-11-02T19:59:35.124Z,8.57
2018-11-02T20:02:06.775Z,8.42
2018-11-02T20:04:38.195Z,8.41
2018-11-02T20:07:12.443Z,8.42
2018-11-02T20:09:43.527Z,8.39
2018-11-02T20:12:14.666Z,8.40
2018-11-02T20:14:46.143Z,8.41
2018-11-02T20:17:17.197Z,8.40
2018-11-02T20:19:48.340Z,8.39
2018-11-02T20:22:19.448Z,8.42
2018-11-02T20:24:51.186Z,8.40
2018-11-02T20:27:23.031Z,8.42
2018-11-02T20:29:54.108Z,8.37
2018-11-02T20:32:28.045Z,8.34
2018-11-02T20:35:01.787Z,8.29
2018-11-02T20:37:35.839Z,8.23
2018-11-02T20:40:11.406Z,8.08
2018-11-02T20:42:46.012Z,8.05
2018-11-02T20:45:22.708Z,7.96
2018-11-02T20:47:57.028Z,7.90
2018-11-02T20:50:31.128Z,7.89
2018-11-02T20:53:05.154Z,7.91
2018-11-02T20:55:38.584Z,7.89
2018-11-02T20:58:11.792Z,7.89
2018-11-02T21:00:52.555Z,7.86
2018-11-02T21:03:29.108Z,7.84
2018-11-02T21:06:02.829Z,7.76
2018-11-02T21:08:39.179Z,7.66
2018-11-02T21:11:12.756Z,7.63
2018-11-02T21:13:46.472Z,7.59
2018-11-02T21:16:19.977Z,7.54
2018-11-02T21:18:53.330Z,7.51
2018-11-02T21:21:27.388Z,7.48
2018-11-02T21:24:05.985Z,7.50
2018-11-02T21:26:40.620Z,7.50
2018-11-02T21:29:17.284Z,7.53
2018-11-02T21:31:52.022Z,7.49
2018-11-02T21:34:27.069Z,7.51
2018-11-02T21:37:00.606Z,7.55
2018-11-02T21:39:33.059Z,7.59
2018-11-02T21:42:05.913Z,7.59
2018-11-02T21:44:38.557Z,7.59
2018-11-02T21:47:12.427Z,7.60
2018-11-02T21:49:45.911Z,7.57
2018-11-02T21:52:24.622Z,7.56
2018-11-02T21:54:58.320Z,7.56
2018-11-02T21:57:31.347Z,7.48
2018-11-02T22:00:03.253Z,7.43
2018-11-02T22:02:37.442Z,7.40
2018-11-02T22:05:12.663Z,7.42
2018-11-02T22:07:47.073Z,7.43
2018-11-02T22:10:19.329Z,7.41
2018-11-02T22:12:52.016Z,7.42
2018-11-02T22:15:23.182Z,7.38
2018-11-02T22:17:59.272Z,7.38
2018-11-02T22:20:31.825Z,7.36
2018-11-02T22:23:03.041Z,7.30
2018-11-02T22:25:34.170Z,7.32
2018-11-02T22:28:05.369Z,7.30
2018-11-02T22:30:36.536Z,7.27
2018-11-02T22:33:07.583Z,7.30
2018-11-02T22:35:38.641Z,7.33
2018-11-02T22:38:11.589Z,7.31
2018-11-02T22:40:42.808Z,7.26
2018-11-02T22:43:17.238Z,7.23
2018-11-02T22:45:48.207Z,7.20
2018-11-02T22:48:26.237Z,7.20
2018-11-02T22:50:58.033Z,7.18
2018-11-02T22:53:29.357Z,7.10
2018-11-02T22:56:00.518Z,6.98
2018-11-02T22:58:32.368Z,6.89
2018-11-02T23:01:20.982Z,6.91
2018-11-02T23:03:52.024Z,6.85
2018-11-02T23:06:23.170Z,6.77
2018-11-02T23:08:54.905Z,6.74
2018-11-02T23:11:26.024Z,6.72
2018-11-02T23:13:57.208Z,6.66
2018-11-02T23:16:28.603Z,6.51
2018-11-02T23:18:59.932Z,6.37
2018-11-02T23:21:30.979Z,6.36
2018-11-02T23:24:02.370Z,6.40
2018-11-02T23:26:33.825Z,6.40
2018-11-02T23:29:04.891Z,6.38
2018-11-02T23:31:37.198Z,6.36
2018-11-02T23:34:08.557Z,6.35
2018-11-02T23:36:40.301Z,6.35
2018-11-02T23:39:11.737Z,6.34
2018-11-02T23:41:42.766Z,6.30
2018-11-02T23:44:14.267Z,6.32
2018-11-02T23:46:45.286Z,6.33
2018-11-02T23:49:16.446Z,6.37
2018-11-02T23:51:48.193Z,6.44
2018-11-02T23:54:25.667Z,6.50
2018-11-02T23:56:56.995Z,6.50
2018-11-02T23:59:28.059Z,6.51
